sensor_id;sensor_type;location;lat;lon;timestamp;pressure;altitude;pressure_sealevel;temperature;humidity
71772;BME280;59606;52.138;5.424;2022-07-15T00:00:41;102378.66;;;15.81;65.09
71772;BME280;59606;52.138;5.424;2022-07-15T00:03:08;102370.25;;;15.74;65.34
71772;BME280;59606;52.138;5.424;2022-07-15T00:05:35;102378.22;;;15.73;65.53
71772;BME280;59606;52.138;5.424;2022-07-15T00:08:01;102375.66;;;15.71;65.73
71772;BME280;59606;52.138;5.424;2022-07-15T00:10:28;102381.19;;;15.67;65.69
71772;BME280;59606;52.138;5.424;2022-07-15T00:12:58;102380.25;;;15.68;65.63
71772;BME280;59606;52.138;5.424;2022-07-15T00:15:28;102379.31;;;15.69;65.68
71772;BME280;59606;52.138;5.424;2022-07-15T00:17:55;102383.81;;;15.67;65.82
71772;BME280;59606;52.138;5.424;2022-07-15T00:20:24;102384.66;;;15.67;65.80
71772;BME280;59606;52.138;5.424;2022-07-15T00:22:50;102379.66;;;15.61;65.92
71772;BME280;59606;52.138;5.424;2022-07-15T00:25:17;102377.13;;;15.60;66.12
71772;BME280;59606;52.138;5.424;2022-07-15T00:28:02;102378.13;;;15.57;65.80
71772;BME280;59606;52.138;5.424;2022-07-15T00:30:30;102380.91;;;15.54;66.35
71772;BME280;59606;52.138;5.424;2022-07-15T00:32:58;102378.34;;;15.52;65.81
71772;BME280;59606;52.138;5.424;2022-07-15T00:35:25;102374.81;;;15.53;65.85
71772;BME280;59606;52.138;5.424;2022-07-15T00:37:51;102374.72;;;15.55;65.94
71772;BME280;59606;52.138;5.424;2022-07-15T00:40:18;102373.88;;;15.54;65.92
71772;BME280;59606;52.138;5.424;2022-07-15T00:42:45;102376.66;;;15.51;66.09
71772;BME280;59606;52.138;5.424;2022-07-15T00:45:22;102376.06;;;15.46;66.30
71772;BME280;59606;52.138;5.424;2022-07-15T00:47:56;102370.97;;;15.43;66.51
71772;BME280;59606;52.138;5.424;2022-07-15T00:50:25;102371.03;;;15.42;66.80
71772;BME280;59606;52.138;5.424;2022-07-15T00:52:55;102366.06;;;15.36;66.69
71772;BME280;59606;52.138;5.424;2022-07-15T00:55:23;102365.47;;;15.30;67.04
71772;BME280;59606;52.138;5.424;2022-07-15T00:57:54;102359.69;;;15.24;67.25
71772;BME280;59606;52.138;5.424;2022-07-15T01:00:21;102362.38;;;15.22;66.87
71772;BME280;59606;52.138;5.424;2022-07-15T01:02:48;102358.28;;;15.17;67.36
71772;BME280;59606;52.138;5.424;2022-07-15T01:05:19;102367.41;;;15.09;67.87
71772;BME280;59606;52.138;5.424;2022-07-15T01:07:46;102365.78;;;15.07;67.99
71772;BME280;59606;52.138;5.424;2022-07-15T01:10:20;102360.56;;;15.05;67.52
71772;BME280;59606;52.138;5.424;2022-07-15T01:12:48;102361.66;;;15.01;67.91
71772;BME280;59606;52.138;5.424;2022-07-15T01:15:16;102359.13;;;15.00;67.92
71772;BME280;59606;52.138;5.424;2022-07-15T01:17:45;102361.06;;;14.96;68.28
71772;BME280;59606;52.138;5.424;2022-07-15T01:20:13;102360.34;;;14.93;68.06
71772;BME280;59606;52.138;5.424;2022-07-15T01:22:40;102357.88;;;14.90;68.75
71772;BME280;59606;52.138;5.424;2022-07-15T01:25:07;102356.38;;;14.84;68.39
71772;BME280;59606;52.138;5.424;2022-07-15T01:27:34;102364.34;;;14.82;68.25
71772;BME280;59606;52.138;5.424;2022-07-15T01:30:01;102361.78;;;14.81;68.50
71772;BME280;59606;52.138;5.424;2022-07-15T01:32:28;102363.56;;;14.80;68.64
71772;BME280;59606;52.138;5.424;2022-07-15T01:34:54;102362.91;;;14.75;68.67
71772;BME280;59606;52.138;5.424;2022-07-15T01:37:21;102366.47;;;14.74;68.96
71772;BME280;59606;52.138;5.424;2022-07-15T01:39:48;102365.72;;;14.72;68.58
71772;BME280;59606;52.138;5.424;2022-07-15T01:42:14;102369.31;;;14.70;68.41
71772;BME280;59606;52.138;5.424;2022-07-15T01:44:41;102372.94;;;14.67;68.49
71772;BME280;59606;52.138;5.424;2022-07-15T01:47:08;102378.09;;;14.69;68.70
71772;BME280;59606;52.138;5.424;2022-07-15T01:49:34;102382.66;;;14.65;69.16
71772;BME280;59606;52.138;5.424;2022-07-15T01:52:02;102382.88;;;14.60;68.85
71772;BME280;59606;52.138;5.424;2022-07-15T01:54:31;102384.72;;;14.58;69.25
71772;BME280;59606;52.138;5.424;2022-07-15T01:56:58;102377.84;;;14.56;69.26
71772;BME280;59606;52.138;5.424;2022-07-15T01:59:24;102379.69;;;14.54;68.88
71772;BME280;59606;52.138;5.424;2022-07-15T02:01:53;102380.66;;;14.51;68.95
71772;BME280;59606;52.138;5.424;2022-07-15T02:04:20;102382.50;;;14.49;69.44
71772;BME280;59606;52.138;5.424;2022-07-15T02:06:47;102379.09;;;14.47;69.56
71772;BME280;59606;52.138;5.424;2022-07-15T02:09:14;102376.41;;;14.49;69.51
71772;BME280;59606;52.138;5.424;2022-07-15T02:11:41;102375.53;;;14.48;69.58
71772;BME280;59606;52.138;5.424;2022-07-15T02:14:08;102371.91;;;14.52;69.71
71772;BME280;59606;52.138;5.424;2022-07-15T02:16:35;102375.28;;;14.54;69.79
71772;BME280;59606;52.138;5.424;2022-07-15T02:19:02;102378.69;;;14.56;69.48
71772;BME280;59606;52.138;5.424;2022-07-15T02:21:28;102378.63;;;14.58;70.18
71772;BME280;59606;52.138;5.424;2022-07-15T02:23:56;102366.28;;;14.60;69.83
71772;BME280;59606;52.138;5.424;2022-07-15T02:26:24;102367.94;;;14.63;70.23
71772;BME280;59606;52.138;5.424;2022-07-15T02:28:50;102371.44;;;14.61;70.72
71772;BME280;59606;52.138;5.424;2022-07-15T02:31:17;102378.63;;;14.58;70.44
71772;BME280;59606;52.138;5.424;2022-07-15T02:33:45;102383.25;;;14.53;70.61
71772;BME280;59606;52.138;5.424;2022-07-15T02:36:11;102383.25;;;14.53;70.67
71772;BME280;59606;52.138;5.424;2022-07-15T02:38:39;102384.09;;;14.53;70.61
71772;BME280;59606;52.138;5.424;2022-07-15T02:41:07;102385.06;;;14.51;70.94
71772;BME280;59606;52.138;5.424;2022-07-15T02:43:34;102381.66;;;14.49;70.98
71772;BME280;59606;52.138;5.424;2022-07-15T02:46:00;102377.41;;;14.46;71.09
71772;BME280;59606;52.138;5.424;2022-07-15T02:48:27;102382.56;;;14.48;70.98
71772;BME280;59606;52.138;5.424;2022-07-15T02:50:54;102378.53;;;14.41;71.36
71772;BME280;59606;52.138;5.424;2022-07-15T02:53:21;102381.22;;;14.39;70.93
71772;BME280;59606;52.138;5.424;2022-07-15T02:55:51;102389.09;;;14.39;71.27
71772;BME280;59606;52.138;5.424;2022-07-15T02:58:18;102392.63;;;14.38;71.26
71772;BME280;59606;52.138;5.424;2022-07-15T03:00:45;102393.69;;;14.34;71.30
71772;BME280;59606;52.138;5.424;2022-07-15T03:03:11;102391.19;;;14.31;71.75
71772;BME280;59606;52.138;5.424;2022-07-15T03:05:38;102393.97;;;14.28;71.26
71772;BME280;59606;52.138;5.424;2022-07-15T03:10:52;102401.97;;;14.25;71.96
71772;BME280;59606;52.138;5.424;2022-07-15T03:13:18;102397.78;;;14.21;72.18
71772;BME280;59606;52.138;5.424;2022-07-15T03:15:46;102402.31;;;14.17;72.18
71772;BME280;59606;52.138;5.424;2022-07-15T03:18:12;102405.06;;;14.14;72.07
71772;BME280;59606;52.138;5.424;2022-07-15T03:20:39;102405.22;;;14.11;71.95
71772;BME280;59606;52.138;5.424;2022-07-15T03:23:13;102402.66;;;14.09;72.03
71772;BME280;59606;52.138;5.424;2022-07-15T03:25:40;102404.50;;;14.07;72.15
71772;BME280;59606;52.138;5.424;2022-07-15T03:28:06;102403.78;;;14.04;72.22
71772;BME280;59606;52.138;5.424;2022-07-15T03:30:33;102403.00;;;14.02;72.27
71772;BME280;59606;52.138;5.424;2022-07-15T03:32:59;102411.06;;;13.97;72.35
71772;BME280;59606;52.138;5.424;2022-07-15T03:35:26;102414.66;;;13.95;72.57
71772;BME280;59606;52.138;5.424;2022-07-15T03:37:52;102418.28;;;13.92;72.78
71772;BME280;59606;52.138;5.424;2022-07-15T03:40:19;102427.97;;;13.90;72.34
71772;BME280;59606;52.138;5.424;2022-07-15T03:42:45;102422.81;;;13.88;72.22
71772;BME280;59606;52.138;5.424;2022-07-15T03:45:12;102420.44;;;13.82;72.40
71772;BME280;59606;52.138;5.424;2022-07-15T03:47:38;102426.47;;;13.84;72.34
71772;BME280;59606;52.138;5.424;2022-07-15T03:50:05;102425.75;;;13.81;72.81
71772;BME280;59606;52.138;5.424;2022-07-15T03:52:32;102430.22;;;13.79;72.73
71772;BME280;59606;52.138;5.424;2022-07-15T03:54:58;102431.09;;;13.78;73.10
71772;BME280;59606;52.138;5.424;2022-07-15T03:57:25;102432.97;;;13.76;73.05
71772;BME280;59606;52.138;5.424;2022-07-15T03:59:53;102430.47;;;13.73;72.84
71772;BME280;59606;52.138;5.424;2022-07-15T04:02:19;102434.06;;;13.70;73.51
71772;BME280;59606;52.138;5.424;2022-07-15T04:04:46;102434.16;;;13.68;73.02
71772;BME280;59606;52.138;5.424;2022-07-15T04:07:12;102437.59;;;13.69;73.07
71772;BME280;59606;52.138;5.424;2022-07-15T04:09:39;102436.81;;;13.67;73.39
71772;BME280;59606;52.138;5.424;2022-07-15T04:12:06;102434.28;;;13.65;73.12
71772;BME280;59606;52.138;5.424;2022-07-15T04:14:32;102436.03;;;13.65;73.75
71772;BME280;59606;52.138;5.424;2022-07-15T04:16:59;102443.09;;;13.63;73.56
71772;BME280;59606;52.138;5.424;2022-07-15T04:19:26;102446.50;;;13.65;73.32
71772;BME280;59606;52.138;5.424;2022-07-15T04:21:52;102445.63;;;13.64;73.36
71772;BME280;59606;52.138;5.424;2022-07-15T04:24:19;102449.97;;;13.65;73.22
71772;BME280;59606;52.138;5.424;2022-07-15T04:26:49;102446.44;;;13.66;73.33
71772;BME280;59606;52.138;5.424;2022-07-15T04:29:15;102443.75;;;13.68;72.98
71772;BME280;59606;52.138;5.424;2022-07-15T04:31:42;102445.38;;;13.71;73.16
71772;BME280;59606;52.138;5.424;2022-07-15T04:34:09;102454.88;;;13.73;72.99
71772;BME280;59606;52.138;5.424;2022-07-15T04:36:35;102450.44;;;13.75;72.90
71772;BME280;59606;52.138;5.424;2022-07-15T04:39:02;102450.38;;;13.77;73.07
71772;BME280;59606;52.138;5.424;2022-07-15T04:41:28;102452.00;;;13.79;73.70
71772;BME280;59606;52.138;5.424;2022-07-15T04:43:55;102455.28;;;13.84;73.10
71772;BME280;59606;52.138;5.424;2022-07-15T04:46:21;102466.41;;;13.89;73.43
71772;BME280;59606;52.138;5.424;2022-07-15T04:48:48;102465.44;;;13.92;73.01
71772;BME280;59606;52.138;5.424;2022-07-15T04:51:33;102463.47;;;13.97;73.47
71772;BME280;59606;52.138;5.424;2022-07-15T04:54:00;102459.66;;;14.04;73.40
71772;BME280;59606;52.138;5.424;2022-07-15T04:56:33;102466.41;;;14.10;72.81
71772;BME280;59606;52.138;5.424;2022-07-15T04:58:59;102459.94;;;14.19;73.18
71772;BME280;59606;52.138;5.424;2022-07-15T05:01:26;102459.59;;;14.26;72.99
71772;BME280;59606;52.138;5.424;2022-07-15T05:03:56;102457.59;;;14.31;73.04
71772;BME280;59606;52.138;5.424;2022-07-15T05:06:23;102462.56;;;14.37;72.58
71772;BME280;59606;52.138;5.424;2022-07-15T05:08:49;102462.38;;;14.42;72.62
71772;BME280;59606;52.138;5.424;2022-07-15T05:11:16;102462.03;;;14.50;72.59
71772;BME280;59606;52.138;5.424;2022-07-15T05:13:43;102460.94;;;14.55;72.71
71772;BME280;59606;52.138;5.424;2022-07-15T05:16:10;102464.97;;;14.63;72.50
71772;BME280;59606;52.138;5.424;2022-07-15T05:18:37;102465.59;;;14.68;72.49
71772;BME280;59606;52.138;5.424;2022-07-15T05:21:04;102464.47;;;14.73;72.39
71772;BME280;59606;52.138;5.424;2022-07-15T05:23:30;102462.47;;;14.78;72.91
71772;BME280;59606;52.138;5.424;2022-07-15T05:25:57;102461.22;;;14.87;72.14
71772;BME280;59606;52.138;5.424;2022-07-15T05:28:23;102466.16;;;14.93;71.66
71772;BME280;59606;52.138;5.424;2022-07-15T05:30:50;102464.97;;;15.00;71.84
71772;BME280;59606;52.138;5.424;2022-07-15T05:33:17;102462.88;;;15.07;71.62
71772;BME280;59606;52.138;5.424;2022-07-15T05:35:44;102462.59;;;15.13;71.95
71772;BME280;59606;52.138;5.424;2022-07-15T05:38:18;102467.56;;;15.19;71.01
71772;BME280;59606;52.138;5.424;2022-07-15T05:40:44;102458.53;;;15.25;71.53
71772;BME280;59606;52.138;5.424;2022-07-15T05:43:11;102462.53;;;15.32;70.68
71772;BME280;59606;52.138;5.424;2022-07-15T05:45:38;102460.63;;;15.36;72.67
71772;BME280;59606;52.138;5.424;2022-07-15T05:48:04;102450.22;;;15.51;71.09
71772;BME280;59606;52.138;5.424;2022-07-15T05:50:31;102458.25;;;15.66;72.35
71772;BME280;59606;52.138;5.424;2022-07-15T05:52:57;102463.56;;;15.83;70.82
71772;BME280;59606;52.138;5.424;2022-07-15T05:55:24;102457.75;;;15.94;69.48
71772;BME280;59606;52.138;5.424;2022-07-15T05:57:50;102454.44;;;16.06;69.09
71772;BME280;59606;52.138;5.424;2022-07-15T06:00:17;102456.88;;;16.44;68.17
71772;BME280;59606;52.138;5.424;2022-07-15T06:02:44;102444.78;;;17.05;66.74
71772;BME280;59606;52.138;5.424;2022-07-15T06:05:11;102450.22;;;17.78;63.63
71772;BME280;59606;52.138;5.424;2022-07-15T06:07:38;102449.59;;;18.46;61.31
71772;BME280;59606;52.138;5.424;2022-07-15T06:10:05;102451.56;;;19.12;59.18
71772;BME280;59606;52.138;5.424;2022-07-15T06:12:32;102436.50;;;19.92;57.83
71772;BME280;59606;52.138;5.424;2022-07-15T06:14:58;102442.59;;;20.57;54.52
71772;BME280;59606;52.138;5.424;2022-07-15T06:17:25;102442.78;;;20.66;54.89
71772;BME280;59606;52.138;5.424;2022-07-15T06:19:51;102443.97;;;20.62;53.52
71772;BME280;59606;52.138;5.424;2022-07-15T06:22:18;102441.56;;;20.08;53.97
71772;BME280;59606;52.138;5.424;2022-07-15T06:24:45;102442.84;;;19.90;54.61
71772;BME280;59606;52.138;5.424;2022-07-15T06:27:11;102443.28;;;19.44;55.11
71772;BME280;59606;52.138;5.424;2022-07-15T06:29:38;102446.09;;;18.74;57.59
71772;BME280;59606;52.138;5.424;2022-07-15T06:32:04;102453.00;;;18.05;58.50
71772;BME280;59606;52.138;5.424;2022-07-15T06:34:31;102453.72;;;17.62;61.36
71772;BME280;59606;52.138;5.424;2022-07-15T06:36:58;102453.88;;;17.45;60.88
71772;BME280;59606;52.138;5.424;2022-07-15T06:39:25;102452.59;;;17.36;60.57
71772;BME280;59606;52.138;5.424;2022-07-15T06:41:51;102452.94;;;17.30;62.23
71772;BME280;59606;52.138;5.424;2022-07-15T06:44:18;102455.59;;;17.30;61.72
71772;BME280;59606;52.138;5.424;2022-07-15T06:46:45;102457.47;;;17.28;62.36
71772;BME280;59606;52.138;5.424;2022-07-15T06:49:11;102458.72;;;17.37;61.73
71772;BME280;59606;52.138;5.424;2022-07-15T06:51:38;102460.59;;;17.35;62.17
71772;BME280;59606;52.138;5.424;2022-07-15T06:54:04;102459.50;;;17.39;62.02
71772;BME280;59606;52.138;5.424;2022-07-15T06:56:31;102460.44;;;17.38;62.89
71772;BME280;59606;52.138;5.424;2022-07-15T06:58:57;102456.81;;;17.55;62.65
71772;BME280;59606;52.138;5.424;2022-07-15T07:01:24;102454.50;;;17.64;61.23
71772;BME280;59606;52.138;5.424;2022-07-15T07:03:51;102455.91;;;17.70;60.22
71772;BME280;59606;52.138;5.424;2022-07-15T07:06:25;102461.28;;;17.68;61.79
71772;BME280;59606;52.138;5.424;2022-07-15T07:08:53;102463.03;;;17.84;59.10
71772;BME280;59606;52.138;5.424;2022-07-15T07:11:20;102463.22;;;17.81;58.70
71772;BME280;59606;52.138;5.424;2022-07-15T07:13:47;102461.09;;;17.87;60.79
71772;BME280;59606;52.138;5.424;2022-07-15T07:16:15;102468.44;;;18.11;59.30
71772;BME280;59606;52.138;5.424;2022-07-15T07:18:42;102468.94;;;18.18;57.97
71772;BME280;59606;52.138;5.424;2022-07-15T07:21:08;102471.28;;;18.08;57.98
71772;BME280;59606;52.138;5.424;2022-07-15T07:23:35;102469.59;;;18.21;58.90
71772;BME280;59606;52.138;5.424;2022-07-15T07:26:02;102476.34;;;18.40;57.35
71772;BME280;59606;52.138;5.424;2022-07-15T07:28:30;102467.50;;;18.55;61.15
71772;BME280;59606;52.138;5.424;2022-07-15T07:30:56;102470.69;;;18.74;59.62
71772;BME280;59606;52.138;5.424;2022-07-15T07:33:23;102473.53;;;18.71;56.67
71772;BME280;59606;52.138;5.424;2022-07-15T07:35:50;102471.00;;;18.55;55.82
71772;BME280;59606;52.138;5.424;2022-07-15T07:38:18;102472.19;;;18.50;55.86
71772;BME280;59606;52.138;5.424;2022-07-15T07:40:46;102478.06;;;18.55;54.72
71772;BME280;59606;52.138;5.424;2022-07-15T07:43:17;102475.03;;;18.75;57.13
71772;BME280;59606;52.138;5.424;2022-07-15T07:45:46;102462.25;;;18.96;56.33
71772;BME280;59606;52.138;5.424;2022-07-15T07:48:13;102463.91;;;19.12;53.77
71772;BME280;59606;52.138;5.424;2022-07-15T07:50:40;102476.31;;;18.97;53.20
71772;BME280;59606;52.138;5.424;2022-07-15T07:53:06;102472.63;;;18.99;54.99
71772;BME280;59606;52.138;5.424;2022-07-15T07:55:33;102466.56;;;19.12;53.88
71772;BME280;59606;52.138;5.424;2022-07-15T07:58:00;102474.06;;;19.18;53.93
71772;BME280;59606;52.138;5.424;2022-07-15T08:00:28;102476.56;;;19.34;53.42
71772;BME280;59606;52.138;5.424;2022-07-15T08:02:57;102462.53;;;19.46;53.04
71772;BME280;59606;52.138;5.424;2022-07-15T08:05:24;102472.13;;;19.34;52.32
71772;BME280;59606;52.138;5.424;2022-07-15T08:08:04;102468.44;;;19.37;52.77
71772;BME280;59606;52.138;5.424;2022-07-15T08:10:31;102465.25;;;19.44;52.19
71772;BME280;59606;52.138;5.424;2022-07-15T08:12:57;102464.47;;;19.57;53.27
71772;BME280;59606;52.138;5.424;2022-07-15T08:15:27;102466.69;;;19.63;52.20
71772;BME280;59606;52.138;5.424;2022-07-15T08:17:55;102473.41;;;19.41;51.29
71772;BME280;59606;52.138;5.424;2022-07-15T08:20:22;102477.78;;;19.15;51.49
71772;BME280;59606;52.138;5.424;2022-07-15T08:22:48;102477.78;;;19.01;50.97
71772;BME280;59606;52.138;5.424;2022-07-15T08:25:15;102479.53;;;18.88;50.66
71772;BME280;59606;52.138;5.424;2022-07-15T08:27:41;102478.69;;;18.87;50.90
71772;BME280;59606;52.138;5.424;2022-07-15T08:30:08;102472.94;;;19.22;51.72
71772;BME280;59606;52.138;5.424;2022-07-15T08:32:35;102466.78;;;19.61;50.53
71772;BME280;59606;52.138;5.424;2022-07-15T08:35:02;102464.41;;;19.71;49.85
71772;BME280;59606;52.138;5.424;2022-07-15T08:37:36;102469.59;;;19.72;50.06
71772;BME280;59606;52.138;5.424;2022-07-15T08:40:04;102462.09;;;19.66;49.79
71772;BME280;59606;52.138;5.424;2022-07-15T08:42:32;102468.78;;;19.58;50.36
71772;BME280;59606;52.138;5.424;2022-07-15T08:44:59;102467.84;;;19.59;51.78
71772;BME280;59606;52.138;5.424;2022-07-15T08:47:26;102469.31;;;19.50;50.28
71772;BME280;59606;52.138;5.424;2022-07-15T08:50:15;102466.97;;;19.45;49.77
71772;BME280;59606;52.138;5.424;2022-07-15T08:52:44;102465.81;;;19.49;50.12
71772;BME280;59606;52.138;5.424;2022-07-15T08:55:12;102458.84;;;19.48;50.79
71772;BME280;59606;52.138;5.424;2022-07-15T08:57:39;102459.53;;;19.65;49.81
71772;BME280;59606;52.138;5.424;2022-07-15T09:00:09;102453.84;;;19.84;49.55
71772;BME280;59606;52.138;5.424;2022-07-15T09:02:38;102458.81;;;19.88;49.10
71772;BME280;59606;52.138;5.424;2022-07-15T09:07:56;102457.13;;;20.25;46.35
71772;BME280;59606;52.138;5.424;2022-07-15T09:10:40;102455.53;;;20.36;45.00
71772;BME280;59606;52.138;5.424;2022-07-15T09:13:42;102459.16;;;20.71;46.90
71772;BME280;59606;52.138;5.424;2022-07-15T09:16:12;102451.38;;;20.94;45.26
71772;BME280;59606;52.138;5.424;2022-07-15T09:18:42;102444.38;;;20.93;46.17
71772;BME280;59606;52.138;5.424;2022-07-15T09:21:17;102446.91;;;20.94;45.27
71772;BME280;59606;52.138;5.424;2022-07-15T09:23:45;102443.69;;;20.78;46.44
71772;BME280;59606;52.138;5.424;2022-07-15T09:26:31;102445.03;;;20.60;45.97
71772;BME280;59606;52.138;5.424;2022-07-15T09:29:04;102446.72;;;20.35;46.96
71772;BME280;59606;52.138;5.424;2022-07-15T09:31:57;102444.63;;;20.28;47.56
71772;BME280;59606;52.138;5.424;2022-07-15T09:35:04;102449.19;;;20.25;46.78
71772;BME280;59606;52.138;5.424;2022-07-15T09:37:58;102442.38;;;20.34;45.95
71772;BME280;59606;52.138;5.424;2022-07-15T09:40:26;102443.72;;;20.65;45.61
71772;BME280;59606;52.138;5.424;2022-07-15T09:43:01;102432.63;;;21.08;45.01
71772;BME280;59606;52.138;5.424;2022-07-15T09:45:31;102431.50;;;21.24;44.04
71772;BME280;59606;52.138;5.424;2022-07-15T09:48:09;102430.97;;;21.42;44.95
71772;BME280;59606;52.138;5.424;2022-07-15T09:50:37;102437.03;;;21.56;43.53
71772;BME280;59606;52.138;5.424;2022-07-15T09:53:10;102433.16;;;21.37;44.68
71772;BME280;59606;52.138;5.424;2022-07-15T09:55:37;102435.50;;;21.64;46.03
71772;BME280;59606;52.138;5.424;2022-07-15T09:58:04;102430.44;;;21.73;42.86
71772;BME280;59606;52.138;5.424;2022-07-15T10:00:37;102435.00;;;21.59;43.79
71772;BME280;59606;52.138;5.424;2022-07-15T10:03:04;102432.41;;;21.71;42.97
71772;BME280;59606;52.138;5.424;2022-07-15T10:05:32;102431.31;;;21.73;42.53
71772;BME280;59606;52.138;5.424;2022-07-15T10:08:02;102427.47;;;21.77;41.77
71772;BME280;59606;52.138;5.424;2022-07-15T10:10:32;102427.38;;;22.01;43.47
71772;BME280;59606;52.138;5.424;2022-07-15T10:21:35;102424.69;;;22.46;38.86
71772;BME280;59606;52.138;5.424;2022-07-15T10:30:18;102419.63;;;21.98;39.84
71772;BME280;59606;52.138;5.424;2022-07-15T10:38:37;102420.09;;;22.59;40.43
71772;BME280;59606;52.138;5.424;2022-07-15T10:41:14;102403.00;;;22.41;39.30
71772;BME280;59606;52.138;5.424;2022-07-15T10:43:46;102403.00;;;22.19;40.10
71772;BME280;59606;52.138;5.424;2022-07-15T10:56:42;102393.38;;;22.18;41.40
71772;BME280;59606;52.138;5.424;2022-07-15T11:01:47;102392.63;;;22.04;41.11
71772;BME280;59606;52.138;5.424;2022-07-15T11:04:20;102385.84;;;21.89;43.18
71772;BME280;59606;52.138;5.424;2022-07-15T11:12:11;102378.00;;;21.76;42.63
71772;BME280;59606;52.138;5.424;2022-07-15T11:20:04;102371.41;;;22.16;41.06
71772;BME280;59606;52.138;5.424;2022-07-15T11:22:36;102362.19;;;22.42;42.14
71772;BME280;59606;52.138;5.424;2022-07-15T11:25:04;102370.09;;;22.65;40.61
71772;BME280;59606;52.138;5.424;2022-07-15T11:27:31;102363.91;;;22.75;40.73
71772;BME280;59606;52.138;5.424;2022-07-15T11:30:01;102358.75;;;22.63;40.11
71772;BME280;59606;52.138;5.424;2022-07-15T11:32:31;102365.31;;;22.47;41.70
71772;BME280;59606;52.138;5.424;2022-07-15T11:35:00;102366.78;;;22.29;41.73
71772;BME280;59606;52.138;5.424;2022-07-15T11:37:33;102369.94;;;22.11;42.30
71772;BME280;59606;52.138;5.424;2022-07-15T11:40:10;102370.06;;;22.10;41.90
71772;BME280;59606;52.138;5.424;2022-07-15T11:42:37;102374.41;;;22.11;42.29
71772;BME280;59606;52.138;5.424;2022-07-15T11:45:37;102369.59;;;22.27;41.92
71772;BME280;59606;52.138;5.424;2022-07-15T11:48:05;102367.03;;;22.26;42.40
71772;BME280;59606;52.138;5.424;2022-07-15T11:50:36;102363.78;;;22.22;43.29
71772;BME280;59606;52.138;5.424;2022-07-15T11:53:15;102365.84;;;22.19;41.92
71772;BME280;59606;52.138;5.424;2022-07-15T11:55:54;102364.03;;;22.19;40.86
71772;BME280;59606;52.138;5.424;2022-07-15T11:58:36;102363.88;;;22.09;41.26
71772;BME280;59606;52.138;5.424;2022-07-15T12:01:08;102355.94;;;21.98;41.26
71772;BME280;59606;52.138;5.424;2022-07-15T12:03:43;102361.84;;;22.02;41.60
71772;BME280;59606;52.138;5.424;2022-07-15T12:09:02;102361.00;;;22.12;41.52
71772;BME280;59606;52.138;5.424;2022-07-15T12:11:39;102368.13;;;22.34;41.64
71772;BME280;59606;52.138;5.424;2022-07-15T12:14:17;102359.88;;;22.49;42.35
71772;BME280;59606;52.138;5.424;2022-07-15T12:16:47;102353.44;;;22.63;40.88
71772;BME280;59606;52.138;5.424;2022-07-15T12:19:15;102354.34;;;22.73;39.68
71772;BME280;59606;52.138;5.424;2022-07-15T12:21:44;102356.41;;;22.80;40.28
71772;BME280;59606;52.138;5.424;2022-07-15T12:24:17;102354.56;;;23.13;39.45
71772;BME280;59606;52.138;5.424;2022-07-15T12:29:19;102346.16;;;23.81;39.17
71772;BME280;59606;52.138;5.424;2022-07-15T12:32:01;102351.97;;;23.44;38.79
71772;BME280;59606;52.138;5.424;2022-07-15T12:37:15;102351.66;;;23.16;40.25
71772;BME280;59606;52.138;5.424;2022-07-15T12:42:43;102357.09;;;22.82;42.13
71772;BME280;59606;52.138;5.424;2022-07-15T12:45:15;102357.94;;;22.94;41.31
71772;BME280;59606;52.138;5.424;2022-07-15T12:53:21;102364.44;;;22.90;40.61
71772;BME280;59606;52.138;5.424;2022-07-15T12:55:50;102361.84;;;22.79;39.79
71772;BME280;59606;52.138;5.424;2022-07-15T12:58:26;102366.41;;;22.77;41.04
71772;BME280;59606;52.138;5.424;2022-07-15T13:01:10;102373.22;;;22.70;40.84
71772;BME280;59606;52.138;5.424;2022-07-15T13:03:37;102377.09;;;22.66;40.84
71772;BME280;59606;52.138;5.424;2022-07-15T13:06:04;102362.91;;;22.88;40.92
71772;BME280;59606;52.138;5.424;2022-07-15T13:08:34;102359.50;;;23.39;41.61
71772;BME280;59606;52.138;5.424;2022-07-15T13:11:04;102348.38;;;23.75;40.31
71772;BME280;59606;52.138;5.424;2022-07-15T13:13:33;102357.00;;;23.89;39.12
71772;BME280;59606;52.138;5.424;2022-07-15T13:16:00;102350.81;;;23.88;39.77
71772;BME280;59606;52.138;5.424;2022-07-15T13:18:29;102349.88;;;23.99;40.11
71772;BME280;59606;52.138;5.424;2022-07-15T13:20:57;102356.28;;;24.37;39.93
71772;BME280;59606;52.138;5.424;2022-07-15T13:23:24;102353.81;;;24.55;37.64
71772;BME280;59606;52.138;5.424;2022-07-15T13:25:52;102351.84;;;24.47;38.07
71772;BME280;59606;52.138;5.424;2022-07-15T13:28:21;102350.31;;;24.14;37.07
71772;BME280;59606;52.138;5.424;2022-07-15T13:30:50;102347.28;;;23.78;39.37
71772;BME280;59606;52.138;5.424;2022-07-15T13:33:17;102343.59;;;23.69;39.56
71772;BME280;59606;52.138;5.424;2022-07-15T13:35:44;102340.22;;;23.46;40.02
71772;BME280;59606;52.138;5.424;2022-07-15T13:38:10;102344.97;;;23.43;39.72
71772;BME280;59606;52.138;5.424;2022-07-15T13:40:37;102345.16;;;23.30;39.78
71772;BME280;59606;52.138;5.424;2022-07-15T13:43:04;102342.59;;;23.19;39.94
71772;BME280;59606;52.138;5.424;2022-07-15T13:45:31;102344.50;;;23.17;40.23
71772;BME280;59606;52.138;5.424;2022-07-15T13:47:57;102335.69;;;23.16;40.98
71772;BME280;59606;52.138;5.424;2022-07-15T13:50:24;102341.03;;;23.16;40.03
71772;BME280;59606;52.138;5.424;2022-07-15T13:53:09;102334.53;;;23.09;40.78
71772;BME280;59606;52.138;5.424;2022-07-15T13:55:36;102338.00;;;23.21;40.40
71772;BME280;59606;52.138;5.424;2022-07-15T13:58:02;102330.03;;;23.30;40.48
71772;BME280;59606;52.138;5.424;2022-07-15T14:00:29;102309.34;;;23.55;39.55
71772;BME280;59606;52.138;5.424;2022-07-15T14:02:56;102325.13;;;23.68;39.95
71772;BME280;59606;52.138;5.424;2022-07-15T14:05:23;102319.88;;;23.66;39.18